Terminal Aerodrome Forecast
Issued by NWS

Home | Current Version | Previous Version | Text Only | Print | Product List | Glossary On
Versions: 1 2 3 4 5 6 7 8 9 10 11 12 13 14
000
FTUS46 KEKA 051125
TAFUKI
TAF
KUKI 051125Z 0512/0612 VRB03KT P6SM SCT002
      TEMPO 0512/0516 1SM BR BKN002
     FM051800 33005KT P6SM SKC=

USA.gov is the U.S. government's official web portal to all federal, state and local government web resources and services.